Time;durP1;ratioP1;P1;durP2;ratioP2;P2;SDS_P1;SDS_P2;PMS_P1;PMS_P2;Temp;Humidity;BMP_temperature;BMP_pressure;BME280_temperature;BME280_humidity;BME280_pressure;Samples;Min_cycle;Max_cycle;Signal;HPM_P1;HPM_P2
2024/01/07 00:01:35;;;;;;;3.45;1.77;;;;;;;5.02;60.77;99603.59;10498689;28;20511;-64
2024/01/07 00:06:37;;;;;;;3.22;1.65;;;;;;;4.77;60.75;99615.88;10516014;28;20098;-64
2024/01/07 00:11:40;;;;;;;2.72;1.77;;;;;;;4.83;60.91;99613.03;10515368;28;20040;-65
2024/01/07 00:16:42;;;;;;;3.25;1.80;;;;;;;4.78;60.77;99617.56;10516389;28;20606;-64
2024/01/07 00:21:44;;;;;;;3.33;1.80;;;;;;;4.79;60.73;99619.25;10515781;28;20072;-64
2024/01/07 00:26:46;;;;;;;2.95;1.55;;;;;;;4.93;60.64;99616.09;10497364;28;20079;-64
2024/01/07 00:31:48;;;;;;;2.65;1.50;;;;;;;4.96;60.58;99616.81;10494614;28;20135;-65
2024/01/07 00:36:50;;;;;;;3.50;1.35;;;;;;;4.97;60.21;99628.84;10518406;28;20109;-64
2024/01/07 00:41:52;;;;;;;2.60;1.50;;;;;;;4.95;60.08;99630.66;10521752;28;20048;-65
2024/01/07 00:46:54;;;;;;;3.15;1.77;;;;;;;4.85;60.13;99634.56;10538409;27;20054;-64
2024/01/07 00:51:57;;;;;;;3.13;1.70;;;;;;;4.82;60.18;99636.44;10505158;28;20052;-64
2024/01/07 00:56:59;;;;;;;2.38;1.77;;;;;;;4.85;60.08;99647.50;10539279;28;20480;-64
2024/01/07 01:02:01;;;;;;;3.30;1.85;;;;;;;4.92;60.02;99648.09;10521413;28;20489;-65
2024/01/07 01:07:03;;;;;;;3.85;2.08;;;;;;;4.88;59.95;99647.41;10522154;28;20040;-64
2024/01/07 01:12:05;;;;;;;3.42;1.70;;;;;;;4.86;59.94;99658.72;10488374;28;20540;-64
2024/01/07 01:17:07;;;;;;;3.20;2.10;;;;;;;4.84;60.00;99661.34;10522178;28;20040;-64
2024/01/07 01:22:09;;;;;;;2.70;1.50;;;;;;;4.85;60.00;99664.78;10520625;28;20527;-64
2024/01/07 01:27:13;;;;;;;3.95;2.00;;;;;;;4.81;59.84;99671.00;10504061;28;20040;-64
2024/01/07 01:32:15;;;;;;;4.63;1.90;;;;;;;4.89;59.75;99671.53;10520679;28;20492;-65
2024/01/07 01:37:17;;;;;;;2.25;1.50;;;;;;;4.98;59.59;99684.13;10520556;28;20131;-64
2024/01/07 01:42:19;;;;;;;3.30;1.67;;;;;;;5.00;59.67;99680.56;10520815;28;20052;-65
2024/01/07 01:47:21;;;;;;;3.03;1.80;;;;;;;4.98;59.40;99684.13;10520540;28;20050;-65
2024/01/07 01:52:23;;;;;;;2.65;1.60;;;;;;;5.11;59.58;99686.16;10501547;28;20064;-65
2024/01/07 01:57:32;;;;;;;2.80;1.48;;;;;;;4.81;59.55;99692.56;10520142;28;20044;-65
2024/01/07 02:02:34;;;;;;;2.70;1.65;;;;;;;4.79;59.77;99689.22;10501766;28;20491;-65
2024/01/07 02:07:37;;;;;;;2.85;1.60;;;;;;;4.91;59.64;99686.13;10501085;28;20048;-64
2024/01/07 02:12:39;;;;;;;3.38;1.75;;;;;;;4.96;59.36;99683.34;10501026;28;20116;-65
2024/01/07 02:17:41;;;;;;;3.97;1.48;;;;;;;4.85;59.59;99690.69;10519665;28;20051;-65
2024/01/07 02:22:43;;;;;;;3.10;1.55;;;;;;;4.81;59.56;99689.13;10501059;28;20051;-65
2024/01/07 02:27:45;;;;;;;2.55;1.40;;;;;;;4.84;59.39;99689.84;10519203;28;20083;-65
2024/01/07 02:32:47;;;;;;;2.75;1.27;;;;;;;4.82;59.34;99698.63;10518482;28;20048;-65
2024/01/07 02:37:49;;;;;;;1.55;1.02;;;;;;;4.72;59.57;99688.59;10500449;28;20579;-65
2024/01/07 02:42:51;;;;;;;2.83;1.40;;;;;;;4.80;59.67;99693.47;10517740;28;20075;-66
2024/01/07 02:47:53;;;;;;;2.70;1.52;;;;;;;4.76;59.36;99698.84;10518643;28;20052;-65
2024/01/07 02:52:56;;;;;;;2.03;1.20;;;;;;;4.81;59.55;99699.50;10499732;28;20117;-65
2024/01/07 02:57:58;;;;;;;2.92;1.58;;;;;;;4.96;59.19;99699.75;10518111;28;20056;-65
2024/01/07 03:03:00;;;;;;;2.88;1.40;;;;;;;4.72;59.52;99705.88;10518142;28;20046;-65
2024/01/07 03:08:02;;;;;;;1.90;1.30;;;;;;;4.69;59.31;99706.03;10517822;28;20731;-65
2024/01/07 03:13:05;;;;;;;1.80;1.10;;;;;;;4.71;59.59;99704.22;10517923;28;20052;-65
2024/01/07 03:18:07;;;;;;;1.65;1.10;;;;;;;4.66;59.39;99706.13;10517279;28;20051;-65
2024/01/07 03:23:10;;;;;;;2.20;1.27;;;;;;;4.67;59.46;99705.25;10517373;28;20048;-65
2024/01/07 03:28:11;;;;;;;1.92;0.93;;;;;;;4.76;59.40;99714.41;10517355;28;20502;-65
2024/01/07 03:33:13;;;;;;;1.50;1.10;;;;;;;4.82;59.33;99711.56;10515913;28;20066;-66
2024/01/07 03:38:16;;;;;;;3.13;1.40;;;;;;;4.87;59.31;99714.81;10516121;28;20047;-65
2024/01/07 03:43:18;;;;;;;1.83;1.17;;;;;;;5.02;59.15;99709.00;10532916;28;20048;-65
2024/01/07 03:48:20;;;;;;;1.98;1.20;;;;;;;4.88;59.25;99716.50;10515864;28;20051;-65
2024/01/07 03:53:22;;;;;;;2.72;1.38;;;;;;;4.83;59.16;99718.41;10531132;28;20052;-65
2024/01/07 03:58:24;;;;;;;1.10;1.00;;;;;;;4.86;59.28;99728.69;10516302;28;20338;-65
2024/01/07 04:03:26;;;;;;;2.50;1.27;;;;;;;4.87;59.33;99719.97;10515687;28;20040;-65
2024/01/07 04:08:28;;;;;;;1.98;1.10;;;;;;;4.86;59.03;99729.50;10514663;28;20051;-65
2024/01/07 04:13:30;;;;;;;2.28;1.25;;;;;;;4.72;59.48;99730.03;10523440;28;20522;-65
2024/01/07 04:18:32;;;;;;;1.35;0.85;;;;;;;4.66;59.55;99737.22;10524537;28;20323;-64
2024/01/07 04:23:34;;;;;;;2.40;1.42;;;;;;;4.71;59.77;99743.06;10523973;28;20063;-65
2024/01/07 04:28:40;;;;;;;1.05;0.82;;;;;;;4.81;59.74;99747.00;10523596;28;20132;-65
2024/01/07 04:33:42;;;;;;;2.13;1.23;;;;;;;4.72;59.42;99755.09;10523805;28;20487;-65
2024/01/07 04:38:44;;;;;;;2.08;1.13;;;;;;;4.62;59.75;99757.22;10523233;28;20056;-65
2024/01/07 04:43:46;;;;;;;1.13;0.88;;;;;;;4.51;60.14;99759.38;10505037;28;20074;-65
2024/01/07 04:48:48;;;;;;;0.77;0.70;;;;;;;4.43;60.21;99765.75;10505366;28;20044;-64
2024/01/07 04:53:50;;;;;;;0.60;0.60;;;;;;;4.49;60.32;99766.38;10521649;28;20484;-65
2024/01/07 04:58:52;;;;;;;1.65;0.95;;;;;;;4.54;60.29;99766.16;10522513;28;20087;-64
2024/01/07 05:03:54;;;;;;;1.73;0.98;;;;;;;4.60;59.91;99776.28;10522931;28;20056;-64
2024/01/07 05:08:56;;;;;;;0.73;0.73;;;;;;;4.62;60.14;99779.66;10522237;28;20038;-64
2024/01/07 05:13:58;;;;;;;1.30;0.90;;;;;;;4.66;60.27;99786.41;10521896;28;20486;-64
2024/01/07 05:19:00;;;;;;;0.77;0.73;;;;;;;4.72;59.94;99792.22;10521992;28;20102;-64
2024/01/07 05:24:04;;;;;;;1.27;0.88;;;;;;;4.73;59.96;99800.84;10520352;28;20048;-64
2024/01/07 05:29:06;;;;;;;1.35;0.93;;;;;;;4.75;59.95;99803.38;10521508;28;20405;-65
2024/01/07 05:34:08;;;;;;;1.55;1.00;;;;;;;4.74;59.94;99814.66;10521247;28;20040;-65
2024/01/07 05:39:10;;;;;;;0.63;0.63;;;;;;;4.77;60.07;99817.97;10500766;28;20052;-65
2024/01/07 05:44:12;;;;;;;1.42;0.90;;;;;;;4.62;59.98;99827.13;10503863;28;20040;-65
2024/01/07 05:49:14;;;;;;;1.10;0.80;;;;;;;4.60;60.13;99834.13;10520882;28;20048;-64
2024/01/07 05:54:16;;;;;;;0.98;0.77;;;;;;;4.66;60.13;99840.81;10520230;28;20514;-65
2024/01/07 05:59:19;;;;;;;0.77;0.77;;;;;;;4.66;60.27;99848.59;10520528;28;20450;-64
2024/01/07 06:04:21;;;;;;;1.83;0.80;;;;;;;4.66;59.97;99857.22;10502085;28;20121;-64
2024/01/07 06:09:23;;;;;;;1.88;0.93;;;;;;;4.66;59.99;99861.53;10501559;28;20117;-63
2024/01/07 06:14:25;;;;;;;0.70;0.70;;;;;;;4.61;60.14;99873.81;10519961;28;20046;-63
2024/01/07 06:19:27;;;;;;;0.85;0.80;;;;;;;4.48;60.42;99870.84;10517505;28;20577;-64
2024/01/07 06:24:29;;;;;;;1.30;0.80;;;;;;;4.52;60.25;99882.78;10518165;28;20056;-63
2024/01/07 06:29:31;;;;;;;1.05;0.90;;;;;;;4.52;60.25;99890.53;10515078;28;20052;-64
2024/01/07 06:34:33;;;;;;;1.15;1.00;;;;;;;4.52;60.60;99893.13;10516906;28;20047;-64
2024/01/07 06:39:35;;;;;;;2.63;1.23;;;;;;;4.45;60.64;99894.25;10517466;28;20412;-64
2024/01/07 06:44:37;;;;;;;3.15;1.90;;;;;;;4.24;60.91;99900.19;10518416;28;20534;-64
2024/01/07 06:49:40;;;;;;;4.82;1.83;;;;;;;4.23;60.93;99915.78;10517390;28;20079;-64
2024/01/07 06:54:42;;;;;;;4.57;2.33;;;;;;;4.45;61.29;99916.72;10518147;28;20048;-63
2024/01/07 06:59:44;;;;;;;5.25;2.20;;;;;;;4.34;60.95;99926.59;10515292;28;20059;-63
2024/01/07 07:04:47;;;;;;;5.18;2.55;;;;;;;4.01;61.20;99925.97;10500155;28;20052;-63
2024/01/07 07:09:50;;;;;;;4.55;2.28;;;;;;;3.76;61.59;99958.69;10514408;28;20047;-65
2024/01/07 07:14:52;;;;;;;4.30;2.38;;;;;;;3.59;62.07;99950.63;10515568;28;20056;-64
2024/01/07 07:19:54;;;;;;;3.80;2.10;;;;;;;3.52;62.28;99960.28;10517097;28;20134;-65
2024/01/07 07:24:56;;;;;;;5.55;2.33;;;;;;;3.57;62.12;99952.41;10516797;28;20569;-64
2024/01/07 07:30:02;;;;;;;6.05;2.63;;;;;;;3.60;62.31;99967.84;10499216;28;20040;-64
2024/01/07 07:35:04;;;;;;;5.82;2.88;;;;;;;3.40;62.74;99983.94;10516640;28;20048;-64
2024/01/07 07:40:07;;;;;;;4.25;2.50;;;;;;;3.55;62.49;99975.72;10498485;28;20511;-65
2024/01/07 07:45:09;;;;;;;4.30;2.65;;;;;;;3.42;62.57;99995.06;10515836;28;20066;-64
2024/01/07 07:50:11;;;;;;;5.05;2.60;;;;;;;3.36;63.05;99989.22;10509857;28;20154;-65
2024/01/07 07:55:13;;;;;;;5.85;2.63;;;;;;;3.44;62.81;100008.81;10515783;28;20040;-64
2024/01/07 08:00:15;;;;;;;6.63;2.90;;;;;;;3.23;63.13;100016.34;10514432;28;20439;-64
2024/01/07 08:05:18;;;;;;;6.05;3.30;;;;;;;3.31;63.24;100029.91;10530750;28;20056;-63
2024/01/07 08:10:21;;;;;;;7.28;3.20;;;;;;;3.39;62.97;100031.38;10514917;28;20040;-64
2024/01/07 08:15:23;;;;;;;5.47;2.67;;;;;;;3.55;62.53;100034.34;10515460;28;20040;-68
2024/01/07 08:20:25;;;;;;;5.22;2.45;;;;;;;3.37;62.53;100040.91;10515023;28;20105;-69
2024/01/07 08:25:27;;;;;;;5.60;2.50;;;;;;;3.53;62.52;100038.72;10496544;28;20492;-69
2024/01/07 08:30:30;;;;;;;5.13;3.00;;;;;;;3.64;62.18;100045.25;10515244;28;20040;-69
2024/01/07 08:35:32;;;;;;;4.63;2.40;;;;;;;3.49;62.79;100050.03;10514682;28;20050;-69
2024/01/07 08:40:34;;;;;;;7.57;2.92;;;;;;;3.51;62.79;100056.00;10514307;28;20056;-70
2024/01/07 08:45:36;;;;;;;5.63;2.60;;;;;;;3.75;62.26;100066.47;10513149;28;20153;-68
2024/01/07 08:50:38;;;;;;;6.75;2.75;;;;;;;3.64;62.00;100062.53;10509715;28;20877;-69
2024/01/07 08:55:40;;;;;;;6.97;3.10;;;;;;;3.77;61.03;100066.44;10510880;28;20066;-68
2024/01/07 09:00:43;;;;;;;5.18;2.78;;;;;;;3.42;61.14;100080.38;10516254;28;20040;-69
2024/01/07 09:05:46;;;;;;;7.07;3.22;;;;;;;3.44;61.43;100091.53;10515478;28;20093;-69
2024/01/07 09:10:48;;;;;;;6.38;2.78;;;;;;;3.68;61.16;100087.41;10532346;28;20040;-69
2024/01/07 09:15:50;;;;;;;5.78;2.63;;;;;;;4.06;60.79;100099.22;10518531;28;20126;-69
2024/01/07 09:20:52;;;;;;;5.40;2.70;;;;;;;4.13;60.17;100104.16;10515957;28;20055;-69
2024/01/07 09:25:54;;;;;;;4.35;2.15;;;;;;;4.08;59.98;100108.63;10515173;28;20040;-68
2024/01/07 09:30:56;;;;;;;6.97;2.85;;;;;;;3.67;58.24;100117.59;10518016;28;20058;-69
2024/01/07 09:35:58;;;;;;;5.13;2.90;;;;;;;3.62;59.05;100131.56;10517068;28;20040;-69
2024/01/07 09:41:15;;;;;;;6.07;2.88;;;;;;;3.59;59.58;100136.78;10517939;28;20150;-69
2024/01/07 09:46:17;;;;;;;6.00;2.97;;;;;;;3.37;59.41;100133.97;10518649;28;20117;-70
2024/01/07 09:51:23;;;;;;;4.38;2.50;;;;;;;3.31;59.41;100147.06;10506411;28;21451;-69
2024/01/07 09:56:28;;;;;;;6.82;2.80;;;;;;;3.48;59.79;100156.91;10520566;28;20052;-69
2024/01/07 10:01:31;;;;;;;4.85;2.72;;;;;;;3.70;59.44;100155.47;10520108;28;20052;-70
2024/01/07 10:06:33;;;;;;;7.85;3.47;;;;;;;3.43;59.99;100158.78;10519920;28;20461;-69
2024/01/07 10:11:35;;;;;;;5.80;3.20;;;;;;;3.25;60.31;100169.63;10519462;28;20081;-69
2024/01/07 10:16:38;;;;;;;6.43;3.05;;;;;;;3.07;60.20;100165.78;10519442;28;20134;-69
2024/01/07 10:21:40;;;;;;;5.93;2.90;;;;;;;3.30;59.94;100160.00;10519772;28;20051;-69
2024/01/07 10:26:42;;;;;;;6.60;3.72;;;;;;;3.43;59.58;100170.00;10518925;28;20094;-69
2024/01/07 10:31:44;;;;;;;6.00;2.85;;;;;;;3.47;58.75;100171.59;10515121;28;20137;-69
2024/01/07 10:36:47;;;;;;;7.60;2.42;;;;;;;3.38;58.09;100168.41;10517772;28;20040;-69
2024/01/07 10:41:50;;;;;;;4.63;2.33;;;;;;;3.31;58.29;100172.91;10516432;28;20458;-69
2024/01/07 10:46:55;;;;;;;4.57;2.42;;;;;;;3.44;57.61;100178.56;10517323;28;20056;-69
2024/01/07 10:52:04;;;;;;;4.88;2.50;;;;;;;3.39;57.47;100180.44;10498346;28;20051;-70
2024/01/07 10:57:18;;;;;;;5.07;2.60;;;;;;;3.50;57.68;100181.00;10516318;28;20089;-68
2024/01/07 11:02:22;;;;;;;4.88;2.40;;;;;;;3.50;57.27;100186.16;10516953;28;20067;-69
2024/01/07 11:07:37;;;;;;;3.83;1.95;;;;;;;3.44;56.99;100182.00;10498323;28;20055;-69
2024/01/07 11:12:39;;;;;;;4.28;2.03;;;;;;;3.31;56.21;100183.25;10497489;28;20143;-69
2024/01/07 11:17:45;;;;;;;5.03;2.17;;;;;;;3.35;57.24;100186.59;10516400;28;20140;-69
2024/01/07 11:22:47;;;;;;;4.18;2.20;;;;;;;3.46;56.85;100195.75;10478950;28;20053;-69
2024/01/07 11:27:49;;;;;;;3.35;2.05;;;;;;;3.48;56.61;100193.97;10516585;28;20079;-69
2024/01/07 11:33:00;;;;;;;6.07;2.33;;;;;;;3.41;56.16;100199.34;10516491;28;20036;-69
2024/01/07 11:38:03;;;;;;;4.35;2.25;;;;;;;3.61;56.33;100191.91;10513886;28;20062;-68
2024/01/07 11:43:05;;;;;;;3.83;2.40;;;;;;;3.56;56.33;100189.44;10516326;28;20488;-68
2024/01/07 11:48:07;;;;;;;3.78;2.28;;;;;;;3.26;56.52;100192.84;10498376;28;20512;-69
2024/01/07 11:53:11;;;;;;;3.72;2.42;;;;;;;3.11;57.11;100187.22;10512982;28;20872;-69
2024/01/07 11:58:13;;;;;;;5.60;2.83;;;;;;;3.04;57.40;100192.56;10512381;28;20046;-69
2024/01/07 12:03:16;;;;;;;4.45;2.50;;;;;;;2.84;57.44;100201.69;10496311;28;20051;-69
2024/01/07 12:08:18;;;;;;;5.35;2.65;;;;;;;2.82;57.79;100206.88;10515046;28;20051;-68
2024/01/07 12:13:20;;;;;;;5.70;2.63;;;;;;;2.99;57.52;100214.19;10496611;28;20040;-69
2024/01/07 12:18:25;;;;;;;5.68;2.90;;;;;;;2.73;57.92;100213.97;10514506;28;20605;-69
2024/01/07 12:23:28;;;;;;;5.57;2.55;;;;;;;2.80;57.90;100221.56;10515171;28;20105;-69
2024/01/07 12:28:30;;;;;;;4.50;2.67;;;;;;;2.86;57.70;100226.59;10496806;28;20467;-69
2024/01/07 12:33:33;;;;;;;4.70;2.30;;;;;;;2.84;57.40;100237.84;10502785;28;20048;-70
2024/01/07 12:38:38;;;;;;;5.95;2.60;;;;;;;2.80;57.31;100231.03;10523248;28;20056;-69
2024/01/07 12:43:40;;;;;;;6.93;2.75;;;;;;;2.63;57.33;100244.34;10523380;28;20047;-69
2024/01/07 12:48:42;;;;;;;5.25;2.78;;;;;;;2.37;57.23;100232.88;10539711;28;20043;-69
2024/01/07 12:53:44;;;;;;;4.45;2.38;;;;;;;2.08;57.50;100239.53;10522938;28;20863;-69
2024/01/07 12:58:46;;;;;;;4.97;2.30;;;;;;;2.12;57.02;100255.78;10521671;28;20126;-69
2024/01/07 13:03:48;;;;;;;6.30;2.80;;;;;;;2.30;57.28;100255.41;10505137;28;20036;-70
2024/01/07 13:08:51;;;;;;;6.40;2.90;;;;;;;2.67;56.95;100256.28;10521922;28;20167;-69
2024/01/07 13:13:53;;;;;;;4.90;2.58;;;;;;;2.43;56.62;100262.00;10504239;28;20039;-70
2024/01/07 13:18:55;;;;;;;5.00;2.80;;;;;;;2.51;56.91;100260.09;10521677;28;20064;-68
2024/01/07 13:23:59;;;;;;;5.88;2.80;;;;;;;2.35;56.63;100265.63;10521709;28;20094;-69
2024/01/07 13:29:03;;;;;;;5.13;2.75;;;;;;;2.30;56.35;100273.47;10502376;28;20300;-68
2024/01/07 13:34:05;;;;;;;5.63;2.80;;;;;;;2.30;56.82;100273.47;10516821;28;20121;-71
2024/01/07 13:39:07;;;;;;;4.45;2.25;;;;;;;1.99;55.69;100295.63;10514974;28;20054;-71
2024/01/07 13:44:17;;;;;;;6.72;3.13;;;;;;;1.79;55.95;100295.97;10500709;28;20137;-70
2024/01/07 13:49:20;;;;;;;5.63;2.35;;;;;;;1.64;56.18;100295.41;10520067;28;20580;-70
2024/01/07 13:54:47;;;;;;;6.60;2.97;;;;;;;1.57;56.15;100306.69;10518732;28;20052;-71
2024/01/07 14:00:09;;;;;;;4.80;2.40;;;;;;;1.52;55.59;100316.25;10517485;28;20056;-69
2024/01/07 14:05:18;;;;;;;5.30;2.60;;;;;;;1.50;55.81;100325.72;10515771;28;20055;-69
2024/01/07 14:10:40;;;;;;;5.10;2.58;;;;;;;1.19;56.06;100344.25;10517896;28;20044;-70
2024/01/07 14:15:45;;;;;;;4.47;2.33;;;;;;;1.01;56.60;100356.56;10519585;28;20106;-69
2024/01/07 14:21:05;;;;;;;5.83;2.67;;;;;;;1.04;55.55;100369.38;10532780;28;20051;-69
2024/01/07 14:26:23;;;;;;;4.03;1.90;;;;;;;0.90;56.10;100374.72;10519219;28;20565;-69
2024/01/07 14:31:41;;;;;;;11.50;2.50;;;;;;;0.85;56.21;100386.78;10503247;28;20047;-68
2024/01/07 14:37:11;;;;;;;2.63;1.75;;;;;;;0.79;56.25;100397.16;10517004;28;20052;-68
2024/01/07 14:42:19;;;;;;;3.65;2.03;;;;;;;0.88;55.82;100417.66;10485091;28;20093;-69
2024/01/07 14:47:25;;;;;;;3.72;2.00;;;;;;;0.52;55.81;100433.56;10518711;28;20059;-69
2024/01/07 14:52:28;;;;;;;4.25;2.13;;;;;;;0.52;56.24;100433.56;10517739;28;20040;-69
2024/01/07 14:57:31;;;;;;;2.75;1.75;;;;;;;0.45;55.80;100440.47;10515876;28;20044;-68
2024/01/07 15:02:34;;;;;;;2.60;1.50;;;;;;;0.41;56.13;100454.25;10518262;28;20101;-68
2024/01/07 15:07:36;;;;;;;4.07;1.90;;;;;;;0.24;55.89;100456.13;10517469;28;20136;-69
2024/01/07 15:12:38;;;;;;;4.43;1.60;;;;;;;-0.00;56.08;100468.34;10517523;28;20462;-69
2024/01/07 15:17:47;;;;;;;4.18;2.03;;;;;;;-0.05;56.19;100470.13;10516715;28;20074;-68
2024/01/07 15:22:50;;;;;;;4.75;2.08;;;;;;;0.07;56.23;100478.59;10516965;28;20044;-69
2024/01/07 15:27:52;;;;;;;3.75;1.92;;;;;;;-0.06;55.57;100489.84;10516847;28;20028;-69
2024/01/07 15:32:54;;;;;;;2.65;1.45;;;;;;;-0.18;56.29;100489.06;10516617;28;20079;-63
2024/01/07 15:37:58;;;;;;;4.25;1.70;;;;;;;0.02;55.75;100493.19;10515467;28;20043;-63
2024/01/07 15:43:00;;;;;;;2.95;1.65;;;;;;;-0.08;53.77;100496.69;10514737;28;20557;-64
2024/01/07 15:48:03;;;;;;;2.53;1.60;;;;;;;0.15;55.05;100506.81;10515949;28;20048;-64
2024/01/07 15:53:05;;;;;;;2.83;1.50;;;;;;;-0.11;53.55;100524.16;10497055;28;20048;-64
2024/01/07 15:58:09;;;;;;;2.08;1.40;;;;;;;0.10;53.96;100523.97;10515482;28;20052;-63
2024/01/07 16:03:12;;;;;;;2.08;1.27;;;;;;;-0.18;52.71;100535.34;10498503;28;20036;-64
2024/01/07 16:08:14;;;;;;;2.20;1.20;;;;;;;-0.29;53.19;100534.56;10522520;28;20522;-65
2024/01/07 16:13:17;;;;;;;2.30;1.50;;;;;;;-0.31;53.19;100544.84;10529469;28;20040;-64
2024/01/07 16:18:19;;;;;;;2.40;1.48;;;;;;;-0.02;52.58;100552.34;10525779;28;20504;-65
2024/01/07 16:23:24;;;;;;;4.57;1.67;;;;;;;-0.15;51.93;100550.75;10526798;28;20443;-65
2024/01/07 16:28:26;;;;;;;1.35;1.13;;;;;;;-0.47;49.89;100567.19;10529049;28;20443;-66
2024/01/07 16:33:29;;;;;;;2.03;1.23;;;;;;;-0.50;50.49;100580.09;10529168;28;20047;-65
2024/01/07 16:38:34;;;;;;;1.10;1.00;;;;;;;-0.51;51.31;100573.22;10511713;28;20071;-65
2024/01/07 16:43:36;;;;;;;3.03;1.20;;;;;;;-0.62;49.86;100626.38;10528274;28;20063;-66
2024/01/07 16:48:38;;;;;;;1.88;1.10;;;;;;;-0.58;50.67;100599.81;10511866;28;20051;-65
2024/01/07 16:53:43;;;;;;;1.73;1.08;;;;;;;-0.64;51.03;100604.13;10528897;28;20044;-64
2024/01/07 16:58:45;;;;;;;3.65;1.27;;;;;;;-0.64;50.15;100604.13;10529098;28;20118;-65
2024/01/07 17:03:47;;;;;;;2.72;1.20;;;;;;;-0.69;50.36;100611.84;10511765;28;20060;-64
2024/01/07 17:08:50;;;;;;;2.40;1.30;;;;;;;-0.72;49.61;100628.97;10511151;28;20075;-65
2024/01/07 17:13:53;;;;;;;1.55;1.20;;;;;;;-0.92;48.84;100628.19;10511287;28;20055;-64
2024/01/07 17:18:55;;;;;;;0.80;0.80;;;;;;;-0.81;50.02;100634.13;10523934;28;20040;-65
2024/01/07 17:23:58;;;;;;;1.83;1.17;;;;;;;-0.73;48.77;100647.78;10503326;28;20436;-65
2024/01/07 17:29:00;;;;;;;1.58;1.13;;;;;;;-0.90;49.24;100647.00;10521281;28;20052;-64
2024/01/07 17:34:02;;;;;;;1.45;1.10;;;;;;;-0.84;49.28;100659.81;10520513;28;20044;-64
2024/01/07 17:39:09;;;;;;;2.25;1.30;;;;;;;-1.03;49.12;100669.25;10519395;28;20146;-65
2024/01/07 17:44:11;;;;;;;2.72;1.30;;;;;;;-0.84;49.27;100676.06;10518111;28;20052;-64
2024/01/07 17:49:13;;;;;;;2.25;1.20;;;;;;;-0.92;49.63;100661.56;10518018;28;20048;-65
2024/01/07 17:54:16;;;;;;;1.55;1.10;;;;;;;-0.84;50.00;100665.78;10520148;28;21096;-64
2024/01/07 17:59:18;;;;;;;1.50;1.17;;;;;;;-0.64;49.44;100658.91;10517580;28;20561;-64
2024/01/07 18:04:20;;;;;;;2.67;1.27;;;;;;;-0.68;49.09;100653.78;10520191;28;20059;-65
2024/01/07 18:09:23;;;;;;;1.08;0.95;;;;;;;-0.75;49.88;100668.34;10519184;28;20151;-64
2024/01/07 18:14:24;;;;;;;1.92;1.02;;;;;;;-0.76;48.98;100666.63;10502000;28;20048;-63
2024/01/07 18:19:27;;;;;;;2.38;1.10;;;;;;;-0.77;49.64;100667.50;10499195;28;20070;-65
2024/01/07 18:24:30;;;;;;;3.88;1.20;;;;;;;-0.84;48.66;100670.94;10519427;28;20048;-65
2024/01/07 18:29:32;;;;;;;1.35;0.98;;;;;;;-0.63;49.41;100676.03;10516364;28;20048;-66
2024/01/07 18:34:35;;;;;;;1.13;0.90;;;;;;;-0.61;48.90;100681.16;10534455;27;20071;-65
2024/01/07 18:39:37;;;;;;;1.40;1.20;;;;;;;-0.79;49.06;100687.19;10499820;28;20122;-64
2024/01/07 18:44:39;;;;;;;1.55;1.10;;;;;;;-0.68;49.17;100688.03;10516013;28;20040;-64
2024/01/07 18:49:41;;;;;;;1.63;1.15;;;;;;;-0.43;49.31;100691.38;10516987;28;20139;-64
2024/01/07 18:54:43;;;;;;;2.30;1.38;;;;;;;-0.21;49.70;100697.31;10515913;28;20028;-65
2024/01/07 18:59:45;;;;;;;2.38;1.30;;;;;;;-0.43;49.19;100696.50;10515391;28;20115;-66
2024/01/07 19:04:47;;;;;;;1.63;1.27;;;;;;;-0.61;49.46;100697.44;10513974;28;20052;-66
2024/01/07 19:09:49;;;;;;;1.10;1.00;;;;;;;-0.52;48.90;100701.69;10499410;28;20044;-66
2024/01/07 19:14:51;;;;;;;1.60;1.13;;;;;;;-0.40;49.07;100705.09;10514728;28;20067;-66
2024/01/07 19:19:53;;;;;;;1.27;1.00;;;;;;;-0.28;49.12;100701.59;10516220;28;20046;-64
2024/01/07 19:24:55;;;;;;;1.75;1.30;;;;;;;-0.58;48.88;100706.84;10498513;28;20040;-64
2024/01/07 19:29:57;;;;;;;1.67;1.10;;;;;;;-0.46;49.43;100707.66;10515396;28;20054;-64
2024/01/07 19:34:59;;;;;;;1.73;1.15;;;;;;;-0.48;48.73;100717.09;10511810;28;20047;-66
2024/01/07 19:40:02;;;;;;;1.48;1.20;;;;;;;-0.52;48.39;100723.09;10473229;28;20056;-64
2024/01/07 19:45:05;;;;;;;1.50;1.20;;;;;;;-0.63;48.94;100719.69;10514851;28;20044;-64
2024/01/07 19:50:07;;;;;;;0.70;0.70;;;;;;;-0.52;49.28;100723.09;10514704;28;20091;-65
2024/01/07 19:55:09;;;;;;;2.28;1.17;;;;;;;-0.50;49.30;100721.38;10514791;28;20048;-64
2024/01/07 20:00:12;;;;;;;3.58;1.55;;;;;;;-0.42;49.33;100727.38;10515212;28;20040;-64
2024/01/07 20:05:16;;;;;;;1.48;1.10;;;;;;;-0.22;49.60;100722.16;10514728;28;20856;-65
2024/01/07 20:10:18;;;;;;;1.80;0.93;;;;;;;-0.40;49.46;100724.78;10512276;28;20047;-65
2024/01/07 20:15:22;;;;;;;0.95;0.88;;;;;;;-0.64;47.63;100741.13;10515014;28;20079;-65
2024/01/07 20:20:35;;;;;;;1.23;1.08;;;;;;;-0.63;48.29;100742.81;10491167;28;20048;-65
2024/01/07 20:25:56;;;;;;;1.08;0.90;;;;;;;-0.67;48.56;100743.66;10508652;28;20075;-64
2024/01/07 20:31:13;;;;;;;1.52;1.00;;;;;;;-0.46;48.27;100743.66;10497237;28;20055;-65
2024/01/07 20:36:25;;;;;;;1.75;1.10;;;;;;;-0.75;47.83;100750.53;10512903;28;20048;-65
2024/01/07 20:41:36;;;;;;;1.83;1.38;;;;;;;-0.60;48.30;100742.81;10481739;28;20155;-64
2024/01/07 20:46:48;;;;;;;1.38;1.00;;;;;;;-0.60;49.50;100749.66;10528265;28;20036;-65
2024/01/07 20:52:07;;;;;;;2.42;1.20;;;;;;;-0.66;48.57;100745.41;10512919;28;20438;-65
2024/01/07 20:57:31;;;;;;;1.75;1.00;;;;;;;-0.42;49.23;100747.06;10518276;28;20055;-65
2024/01/07 21:02:45;;;;;;;1.40;1.13;;;;;;;-0.46;49.11;100748.78;10536315;28;20040;-65
2024/01/07 21:08:28;;;;;;;1.20;1.10;;;;;;;-0.42;49.24;100740.22;10529825;27;20048;-65
2024/01/07 21:13:36;;;;;;;1.55;1.10;;;;;;;-0.66;49.54;100745.41;10502364;28;20052;-65
2024/01/07 21:18:51;;;;;;;1.80;1.30;;;;;;;-0.33;49.88;100742.72;10487095;28;20040;-64
2024/01/07 21:24:06;;;;;;;1.33;1.00;;;;;;;-0.37;49.45;100748.75;10518767;28;20052;-65
2024/01/07 21:29:55;;;;;;;2.30;1.15;;;;;;;-0.24;50.02;100748.72;10519271;28;20039;-66
2024/01/07 21:35:13;;;;;;;1.48;1.00;;;;;;;-0.27;49.66;100753.88;10501484;28;20054;-65
2024/01/07 21:40:58;;;;;;;1.60;1.27;;;;;;;-0.42;50.25;100747.91;10506703;28;20052;-65
2024/01/07 21:46:28;;;;;;;3.85;1.30;;;;;;;-0.34;50.37;100745.31;10519045;28;20408;-66
2024/01/07 21:51:42;;;;;;;2.05;1.13;;;;;;;-0.16;50.65;100750.41;10502899;28;20040;-66
2024/01/07 21:56:50;;;;;;;;;;;;;;;-0.45;50.16;100747.03;10519842;28;20028;-65
2024/01/07 22:01:56;;;;;;;2.22;1.30;;;;;;;-0.47;50.58;100753.91;10518120;28;19934;-66
2024/01/07 22:07:08;;;;;;;4.68;1.10;;;;;;;-0.54;50.08;100767.63;10533632;28;20072;-65
2024/01/07 22:12:13;;;;;;;1.95;1.30;;;;;;;-0.71;50.61;100759.09;10518464;28;20063;-65
2024/01/07 22:17:21;;;;;;;2.55;1.50;;;;;;;-0.95;50.42;100766.81;10499301;28;20051;-65
2024/01/07 22:22:35;;;;;;;1.92;1.10;;;;;;;-0.63;50.53;100772.78;10529685;27;20070;-65
2024/01/07 22:28:00;;;;;;;1.23;1.00;;;;;;;-0.62;49.89;100777.06;10498540;28;20577;-65
2024/01/07 22:33:06;;;;;;;1.73;1.13;;;;;;;-0.31;50.50;100766.72;10515838;28;20039;-65
2024/01/07 22:38:18;;;;;;;1.98;1.25;;;;;;;-0.44;49.38;100765.06;10515817;28;20570;-64
2024/01/07 22:43:25;;;;;;;1.45;0.95;;;;;;;-0.55;49.73;100778.75;10512123;28;20220;-64
2024/01/07 22:48:34;;;;;;;1.13;0.90;;;;;;;-0.69;49.63;100762.50;10494278;28;20056;-64
2024/01/07 22:53:41;;;;;;;1.75;1.10;;;;;;;-0.71;49.93;100777.06;10496818;28;20058;-63
2024/01/07 22:58:47;;;;;;;1.38;1.10;;;;;;;-0.61;50.02;100769.34;10529293;27;20048;-65
2024/01/07 23:03:58;;;;;;;1.30;0.90;;;;;;;-0.46;50.13;100773.63;10495955;28;20499;-64
2024/01/07 23:09:08;;;;;;;2.63;1.40;;;;;;;-0.18;50.23;100771.81;10512343;28;20125;-64
2024/01/07 23:14:14;;;;;;;2.33;1.30;;;;;;;-0.16;49.94;100770.97;10510670;28;20040;-64
2024/01/07 23:19:17;;;;;;;2.60;1.10;;;;;;;-0.06;49.89;100782.06;10494955;28;20072;-64
2024/01/07 23:24:20;;;;;;;1.33;1.10;;;;;;;-0.23;50.20;100774.44;10510148;28;20039;-65
2024/01/07 23:29:22;;;;;;;1.10;1.00;;;;;;;-0.33;50.14;100778.72;10514661;28;20488;-65
2024/01/07 23:34:24;;;;;;;1.40;1.00;;;;;;;-0.33;50.57;100780.41;10494832;28;20043;-65